Time;durP1;ratioP1;P1;durP2;ratioP2;P2;SDS_P1;SDS_P2;PMS_P1;PMS_P2;Temp;Humidity;BMP_temperature;BMP_pressure;BME280_temperature;BME280_humidity;BME280_pressure;Samples;Min_cycle;Max_cycle;Signal;HPM_P1;HPM_P2
2022/07/31 03:01:21;;;;;;;0.70;0.50;;;21.40;61.50;;;;;;6150452;22;20379;31
2022/07/31 03:03:49;;;;;;;0.70;0.60;;;21.30;61.60;;;;;;4976190;28;20446;-76
2022/07/31 03:06:16;;;;;;;0.70;0.60;;;21.20;62.10;;;;;;4977132;28;20538;-76
2022/07/31 03:08:43;;;;;;;0.70;0.70;;;21.20;62.50;;;;;;4977384;28;20445;-76
2022/07/31 03:11:10;;;;;;;0.70;0.60;;;21.10;62.50;;;;;;4977155;28;20521;-76
2022/07/31 03:13:38;;;;;;;0.70;0.60;;;21.10;62.60;;;;;;4977292;28;20490;-76
2022/07/31 03:16:10;;;;;;;0.70;0.70;;;21.10;62.70;;;;;;4978632;28;20486;-75
2022/07/31 03:18:37;;;;;;;0.77;0.63;;;21.10;62.50;;;;;;4976920;28;20932;-75
2022/07/31 03:21:05;;;;;;;0.70;0.60;;;21.10;62.40;;;;;;4977074;28;20493;-76
2022/07/31 03:23:35;;;;;;;0.70;0.60;;;21.10;62.60;;;;;;4976631;28;20455;-76
2022/07/31 03:26:02;;;;;;;1.00;0.70;;;21.10;62.60;;;;;;4976736;28;20461;-76
2022/07/31 03:28:28;;;;;;;0.80;0.73;;;21.00;62.80;;;;;;4976994;28;20457;-76
2022/07/31 03:30:55;;;;;;;0.70;0.70;;;21.00;63.00;;;;;;4976716;28;20497;-76
2022/07/31 03:33:22;;;;;;;0.70;0.60;;;20.90;63.00;;;;;;4976947;28;20446;-76
2022/07/31 03:35:49;;;;;;;1.23;0.60;;;20.90;63.10;;;;;;4976831;28;20525;-76
2022/07/31 03:38:17;;;;;;;0.80;0.60;;;20.90;63.20;;;;;;4976812;28;20524;-76
2022/07/31 03:40:43;;;;;;;0.70;0.60;;;21.00;63.00;;;;;;4976666;28;20561;-75
2022/07/31 03:43:11;;;;;;;0.80;0.60;;;21.00;63.00;;;;;;4977013;28;20438;-76
2022/07/31 03:45:39;;;;;;;0.70;0.50;;;21.00;62.90;;;;;;4976330;28;21042;-76
2022/07/31 03:48:07;;;;;;;0.90;0.60;;;21.00;63.10;;;;;;4976619;28;20458;-76
2022/07/31 03:50:34;;;;;;;0.70;0.70;;;21.00;63.00;;;;;;4976459;28;20450;-76
2022/07/31 03:53:01;;;;;;;0.80;0.70;;;21.00;63.20;;;;;;4976586;28;20461;-75
2022/07/31 03:55:30;;;;;;;0.70;0.70;;;20.90;63.30;;;;;;4976467;28;20579;-76
2022/07/31 03:57:58;;;;;;;0.70;0.60;;;20.90;63.40;;;;;;4976458;28;20537;-76
2022/07/31 04:00:26;;;;;;;0.70;0.60;;;20.90;63.50;;;;;;4976038;28;20481;-76
2022/07/31 04:02:54;;;;;;;0.70;0.63;;;20.90;63.60;;;;;;4976054;28;20462;-76
2022/07/31 04:05:20;;;;;;;0.70;0.60;;;20.90;63.80;;;;;;4976294;28;20455;-76
2022/07/31 04:07:47;;;;;;;0.70;0.70;;;20.90;64.10;;;;;;4976240;28;20450;-75
2022/07/31 04:10:14;;;;;;;0.70;0.60;;;20.90;64.20;;;;;;4976181;28;20446;-76
2022/07/31 04:12:42;;;;;;;0.80;0.60;;;20.90;64.10;;;;;;4976005;28;20485;-76
2022/07/31 04:15:09;;;;;;;0.80;0.80;;;20.90;64.10;;;;;;4976097;28;20454;-75
2022/07/31 04:17:36;;;;;;;0.70;0.60;;;20.90;63.90;;;;;;4976053;28;20450;-75
2022/07/31 04:20:03;;;;;;;0.70;0.60;;;21.00;63.80;;;;;;4975997;28;20450;-76
2022/07/31 04:22:30;;;;;;;0.70;0.60;;;21.00;64.10;;;;;;4975935;28;20474;-75
2022/07/31 04:24:56;;;;;;;0.70;0.70;;;21.00;64.30;;;;;;4975922;28;20458;-76
2022/07/31 04:27:23;;;;;;;0.80;0.80;;;20.90;65.00;;;;;;4975597;28;20942;-76
2022/07/31 04:29:51;;;;;;;0.70;0.70;;;20.90;65.10;;;;;;4975837;28;20516;-76
2022/07/31 04:32:18;;;;;;;0.80;0.80;;;20.90;65.40;;;;;;4975643;28;20489;-76
2022/07/31 04:34:44;;;;;;;0.90;0.90;;;20.90;65.40;;;;;;4974918;28;20451;-75
2022/07/31 04:37:11;;;;;;;0.80;0.80;;;20.90;65.40;;;;;;4975383;28;20800;-75
2022/07/31 04:39:38;;;;;;;0.73;0.73;;;20.90;65.40;;;;;;4975340;28;20954;-75
2022/07/31 04:42:05;;;;;;;1.10;1.00;;;20.90;65.50;;;;;;4975603;28;20551;-76
2022/07/31 04:44:32;;;;;;;0.90;0.90;;;21.00;65.50;;;;;;4975566;28;20461;-76
2022/07/31 04:47:02;;;;;;;0.80;0.80;;;20.90;65.60;;;;;;4975499;28;20461;-76
2022/07/31 04:49:29;;;;;;;0.97;0.97;;;20.90;65.60;;;;;;4975479;28;20454;-76
2022/07/31 04:51:56;;;;;;;0.80;0.80;;;20.80;65.90;;;;;;4975362;28;20486;-76
2022/07/31 04:54:23;;;;;;;0.80;0.70;;;20.80;66.00;;;;;;4975489;28;20798;-76
2022/07/31 04:56:50;;;;;;;0.80;0.80;;;20.90;65.90;;;;;;4975404;28;20537;-76
2022/07/31 04:59:20;;;;;;;0.70;0.63;;;21.00;65.80;;;;;;4975347;28;20506;-76
2022/07/31 05:01:47;;;;;;;0.70;0.70;;;21.10;65.30;;;;;;4975050;28;20577;-76
2022/07/31 05:04:15;;;;;;;0.80;0.70;;;21.30;65.60;;;;;;4974975;28;20512;-75
2022/07/31 05:06:43;;;;;;;0.83;0.83;;;21.40;64.80;;;;;;4975226;28;20458;-75
2022/07/31 05:09:13;;;;;;;0.70;0.70;;;21.50;65.00;;;;;;4974867;28;20853;-76
2022/07/31 05:11:41;;;;;;;0.70;0.60;;;21.60;64.00;;;;;;4974935;28;20486;-75
2022/07/31 05:14:09;;;;;;;0.70;0.60;;;21.70;62.30;;;;;;4975080;28;20461;-75
2022/07/31 05:16:37;;;;;;;0.70;0.70;;;21.80;61.30;;;;;;4975129;28;20450;-76
2022/07/31 05:19:05;;;;;;;0.70;0.60;;;21.90;61.00;;;;;;4974988;28;20455;-76
2022/07/31 05:21:33;;;;;;;0.70;0.60;;;22.00;61.20;;;;;;4974948;28;20470;-76
2022/07/31 05:24:01;;;;;;;0.70;0.60;;;22.10;61.10;;;;;;4974905;28;20458;-76
2022/07/31 05:26:29;;;;;;;0.70;0.60;;;22.20;60.90;;;;;;4974906;28;20446;-76
2022/07/31 05:28:57;;;;;;;0.70;0.60;;;22.20;61.60;;;;;;4974564;28;20458;-76
2022/07/31 05:31:24;;;;;;;0.70;0.70;;;22.30;61.60;;;;;;4974708;28;20489;-76
2022/07/31 05:33:51;;;;;;;0.70;0.67;;;22.10;61.80;;;;;;4974757;28;20455;-75
2022/07/31 05:36:19;;;;;;;0.70;0.60;;;22.10;62.50;;;;;;4974781;28;20851;-76
2022/07/31 05:38:47;;;;;;;0.70;0.60;;;22.30;62.90;;;;;;4974760;28;20450;-76
2022/07/31 05:41:14;;;;;;;0.70;0.60;;;22.30;62.90;;;;;;4974692;28;20549;-76
2022/07/31 05:43:41;;;;;;;0.80;0.70;;;22.30;62.60;;;;;;4974760;28;20540;-76
2022/07/31 05:46:08;;;;;;;0.70;0.60;;;22.10;63.40;;;;;;4974477;28;20449;-76
2022/07/31 05:48:34;;;;;;;0.70;0.60;;;22.20;64.10;;;;;;4974691;28;20537;-76
2022/07/31 05:51:01;;;;;;;0.70;0.60;;;22.30;63.70;;;;;;4974543;28;20470;-75
2022/07/31 05:53:28;;;;;;;0.70;0.60;;;22.10;64.30;;;;;;4974550;28;20524;-75
2022/07/31 05:55:56;;;;;;;0.70;0.57;;;21.80;64.20;;;;;;4974504;28;20450;-75
2022/07/31 05:58:22;;;;;;;0.80;0.70;;;21.90;65.10;;;;;;4974506;28;20454;-75
2022/07/31 06:00:49;;;;;;;0.80;0.70;;;22.00;64.70;;;;;;4974480;28;20497;-74
2022/07/31 06:03:22;;;;;;;0.70;0.60;;;22.10;65.00;;;;;;4974140;28;20556;-74
2022/07/31 06:05:49;;;;;;;0.70;0.70;;;22.20;64.70;;;;;;4974504;28;20501;-74
2022/07/31 06:08:15;;;;;;;0.70;0.60;;;22.30;64.70;;;;;;4974420;28;20453;-74
2022/07/31 06:10:42;;;;;;;0.70;0.60;;;22.30;64.50;;;;;;4974323;28;20525;-75
2022/07/31 06:13:10;;;;;;;0.70;0.60;;;22.40;64.70;;;;;;4974057;28;21068;-75
2022/07/31 06:15:37;;;;;;;0.70;0.60;;;22.50;64.90;;;;;;4974081;28;20854;-76
2022/07/31 06:18:04;;;;;;;0.80;0.60;;;22.50;64.60;;;;;;4973984;28;20859;-76
2022/07/31 06:20:31;;;;;;;0.70;0.60;;;22.60;63.70;;;;;;4974196;28;20450;-76
2022/07/31 06:22:58;;;;;;;0.90;0.60;;;22.60;63.60;;;;;;4974268;28;20497;-76
2022/07/31 06:25:24;;;;;;;0.70;0.60;;;22.70;60.70;;;;;;4973961;28;20938;-75
2022/07/31 06:27:51;;;;;;;0.80;0.67;;;22.80;59.90;;;;;;4974236;28;20450;-75
2022/07/31 06:30:19;;;;;;;0.70;0.60;;;22.90;59.60;;;;;;4974215;28;20855;-75
2022/07/31 06:32:46;;;;;;;0.80;0.73;;;23.00;58.40;;;;;;4973768;28;20840;-75
2022/07/31 06:35:13;;;;;;;0.70;0.50;;;23.10;58.60;;;;;;4973907;28;20961;-76
2022/07/31 06:37:40;;;;;;;0.80;0.60;;;23.20;59.10;;;;;;4974178;28;20557;-76
2022/07/31 06:40:07;;;;;;;0.70;0.60;;;23.30;57.70;;;;;;4974092;28;20454;-76
2022/07/31 06:42:34;;;;;;;0.70;0.60;;;23.30;57.60;;;;;;4974112;28;20486;-76
2022/07/31 06:45:00;;;;;;;0.70;0.60;;;23.40;57.40;;;;;;4973858;28;20867;-77
2022/07/31 06:47:28;;;;;;;0.80;0.60;;;23.30;58.20;;;;;;4973849;28;20937;-77
2022/07/31 06:49:55;;;;;;;0.60;0.50;;;23.40;58.00;;;;;;4974120;28;20450;-75
2022/07/31 06:52:22;;;;;;;0.70;0.60;;;23.40;58.00;;;;;;4973920;28;20489;-76
2022/07/31 06:54:48;;;;;;;1.00;0.60;;;23.50;57.20;;;;;;4973691;28;20457;-76
2022/07/31 06:57:15;;;;;;;0.70;0.60;;;23.70;57.60;;;;;;4974603;28;20501;-77
2022/07/31 06:59:42;;;;;;;0.97;0.57;;;23.80;56.20;;;;;;4977504;28;20438;-77
2022/07/31 07:02:09;;;;;;;0.80;0.60;;;24.00;56.40;;;;;;4977128;28;20486;-76
2022/07/31 07:04:37;;;;;;;0.70;0.60;;;24.10;55.70;;;;;;4977341;28;20450;-76
2022/07/31 07:07:04;;;;;;;0.70;0.60;;;24.40;55.00;;;;;;4977342;28;20504;-77
2022/07/31 07:09:30;;;;;;;0.70;0.60;;;24.50;55.80;;;;;;4976987;28;20901;-78
2022/07/31 07:11:57;;;;;;;0.70;0.60;;;24.70;54.90;;;;;;4976746;28;21032;-77
2022/07/31 07:14:24;;;;;;;0.70;0.60;;;24.90;54.70;;;;;;4977196;28;20524;-76
2022/07/31 07:16:50;;;;;;;1.00;0.57;;;25.00;56.20;;;;;;4977104;28;20462;-77
2022/07/31 07:19:17;;;;;;;0.70;0.60;;;24.90;59.10;;;;;;4977120;28;20931;-77
2022/07/31 07:21:45;;;;;;;0.70;0.60;;;24.80;59.60;;;;;;4977032;28;20477;-73
2022/07/31 07:24:12;;;;;;;0.70;0.68;;;25.00;60.00;;;;;;4977060;28;20454;-78
2022/07/31 07:26:38;;;;;;;1.10;0.60;;;25.00;59.20;;;;;;4976943;28;20206;-77
2022/07/31 07:29:05;;;;;;;1.07;0.60;;;25.40;59.60;;;;;;4976658;28;20453;-77
2022/07/31 07:31:32;;;;;;;0.70;0.60;;;25.40;57.60;;;;;;4976796;28;20474;-77
2022/07/31 07:34:00;;;;;;;0.80;0.80;;;25.60;59.60;;;;;;4976750;28;20490;-77
2022/07/31 07:36:26;;;;;;;0.70;0.60;;;26.10;58.50;;;;;;4976521;28;20965;-77
2022/07/31 07:38:54;;;;;;;0.80;0.67;;;26.40;56.50;;;;;;4976460;28;20945;-77
2022/07/31 07:41:21;;;;;;;1.00;0.60;;;26.50;53.90;;;;;;4976321;28;20843;-77
2022/07/31 07:43:48;;;;;;;0.70;0.60;;;26.70;54.10;;;;;;4976379;28;20505;-76
2022/07/31 07:46:15;;;;;;;0.70;0.50;;;27.00;52.60;;;;;;4976654;28;20481;-77
2022/07/31 07:48:41;;;;;;;0.70;0.50;;;27.20;53.40;;;;;;4976215;28;20960;-77
2022/07/31 07:51:08;;;;;;;0.70;0.50;;;27.40;52.60;;;;;;4976452;28;20482;-77
2022/07/31 07:53:35;;;;;;;1.07;0.70;;;27.30;49.60;;;;;;4976404;28;20485;-78
2022/07/31 07:56:04;;;;;;;0.70;0.60;;;27.10;51.60;;;;;;4976441;28;20462;-77
2022/07/31 07:58:30;;;;;;;1.00;0.60;;;27.20;51.40;;;;;;4976371;28;20505;-77
2022/07/31 08:00:57;;;;;;;0.70;0.60;;;27.00;51.70;;;;;;4976357;28;20470;-77
2022/07/31 08:03:23;;;;;;;0.70;0.57;;;27.10;51.90;;;;;;4975966;28;20946;-78
2022/07/31 08:05:50;;;;;;;0.70;0.60;;;27.20;51.60;;;;;;4976385;28;20450;-77
2022/07/31 08:08:17;;;;;;;0.70;0.60;;;27.30;51.80;;;;;;4976363;28;20446;-78
2022/07/31 08:10:43;;;;;;;0.70;0.60;;;27.30;51.50;;;;;;4976158;28;20478;-77
2022/07/31 08:13:11;;;;;;;0.80;0.70;;;27.30;51.70;;;;;;4976156;28;20478;-77
2022/07/31 08:15:38;;;;;;;0.70;0.50;;;27.30;49.30;;;;;;4976187;28;20590;-77
2022/07/31 08:18:05;;;;;;;0.70;0.60;;;27.10;49.70;;;;;;4976208;28;20509;-78
2022/07/31 08:20:31;;;;;;;0.97;0.60;;;27.30;51.00;;;;;;4975948;28;20450;-78
2022/07/31 08:22:58;;;;;;;0.70;0.60;;;27.20;50.40;;;;;;4975850;28;20489;-77
2022/07/31 08:25:25;;;;;;;0.70;0.60;;;26.60;53.20;;;;;;4976029;28;20450;-77
2022/07/31 08:27:51;;;;;;;0.70;0.60;;;26.60;54.10;;;;;;4975734;28;20856;-77
2022/07/31 08:30:19;;;;;;;0.70;0.70;;;26.80;54.30;;;;;;4975874;28;20454;-77
2022/07/31 08:32:46;;;;;;;0.70;0.60;;;26.70;55.90;;;;;;4975754;28;20478;-77
2022/07/31 08:35:13;;;;;;;0.70;0.60;;;26.60;57.10;;;;;;4975860;28;20545;-77
2022/07/31 08:37:41;;;;;;;0.80;0.70;;;26.60;56.80;;;;;;4975551;28;20967;-78
2022/07/31 08:40:08;;;;;;;0.70;0.60;;;26.70;56.10;;;;;;4975761;28;20533;-77
2022/07/31 08:42:36;;;;;;;1.33;0.70;;;26.80;56.80;;;;;;4975720;28;20467;-77
2022/07/31 08:45:06;;;;;;;0.70;0.60;;;26.80;56.60;;;;;;4975615;28;20446;-77
2022/07/31 08:47:36;;;;;;;0.80;0.70;;;26.70;56.80;;;;;;4975670;28;20864;-77
2022/07/31 08:50:04;;;;;;;0.70;0.60;;;26.60;55.90;;;;;;4975926;28;20446;-77
2022/07/31 08:52:32;;;;;;;1.07;0.70;;;26.80;56.20;;;;;;4975362;28;20490;-77
2022/07/31 08:55:01;;;;;;;0.70;0.60;;;26.60;54.80;;;;;;4975445;28;20537;-77
2022/07/31 08:57:28;;;;;;;0.70;0.60;;;26.60;56.50;;;;;;4975412;28;20446;-77
2022/07/31 08:59:54;;;;;;;0.70;0.60;;;26.70;55.50;;;;;;4975074;28;20938;-77
2022/07/31 09:02:21;;;;;;;1.43;0.60;;;27.10;54.60;;;;;;4974963;28;20494;-77
2022/07/31 09:04:50;;;;;;;0.70;0.60;;;27.40;53.60;;;;;;4975306;28;20494;-77
2022/07/31 09:07:17;;;;;;;0.70;0.60;;;27.60;51.10;;;;;;4975262;28;20542;-78
2022/07/31 09:09:44;;;;;;;0.70;0.60;;;27.60;52.10;;;;;;4975132;28;20453;-78
2022/07/31 09:12:11;;;;;;;0.70;0.60;;;27.90;50.80;;;;;;4975016;28;20515;-78
2022/07/31 09:14:44;;;;;;;0.70;0.60;;;28.30;51.20;;;;;;4975850;28;20453;-77
2022/07/31 09:17:14;;;;;;;0.70;0.60;;;28.70;49.70;;;;;;4975117;28;20439;-78
2022/07/31 09:19:43;;;;;;;0.70;0.53;;;29.10;49.20;;;;;;4974811;28;20447;-78
2022/07/31 09:22:21;;;;;;;0.93;0.60;;;28.90;46.70;;;;;;4974863;28;20840;-77
2022/07/31 09:24:47;;;;;;;0.70;0.50;;;29.00;48.00;;;;;;4975094;28;20441;-77
2022/07/31 09:27:16;;;;;;;1.00;0.60;;;29.10;45.70;;;;;;4974942;28;20454;-78
2022/07/31 09:29:44;;;;;;;0.90;0.60;;;29.20;45.80;;;;;;4974941;28;20456;-77
2022/07/31 09:32:12;;;;;;;0.70;0.60;;;29.50;46.20;;;;;;4974802;28;20478;-77
2022/07/31 09:34:39;;;;;;;0.70;0.60;;;29.80;45.30;;;;;;4974966;28;20451;-77
2022/07/31 09:37:13;;;;;;;0.70;0.60;;;29.70;44.50;;;;;;4974941;28;20454;-77
2022/07/31 09:39:42;;;;;;;0.80;0.60;;;29.60;44.90;;;;;;4975007;28;20430;-77
2022/07/31 09:42:09;;;;;;;0.70;0.50;;;29.80;44.70;;;;;;4974510;28;20997;-78
2022/07/31 09:44:38;;;;;;;0.70;0.60;;;29.90;44.70;;;;;;4974807;28;20438;-77
2022/07/31 09:47:06;;;;;;;0.80;0.60;;;29.90;44.70;;;;;;4974900;28;20442;-77
2022/07/31 09:49:33;;;;;;;0.70;0.50;;;30.00;45.70;;;;;;4974720;28;20481;-77
2022/07/31 09:52:00;;;;;;;0.70;0.50;;;30.30;44.90;;;;;;4974605;28;20466;-77
2022/07/31 09:54:29;;;;;;;0.70;0.50;;;30.50;44.20;;;;;;4974391;28;21009;-77
2022/07/31 09:56:57;;;;;;;1.00;0.70;;;30.80;43.60;;;;;;4974932;28;20453;-77
2022/07/31 09:59:25;;;;;;;1.00;0.60;;;30.70;42.80;;;;;;4974787;28;20455;-77
2022/07/31 10:01:52;;;;;;;0.70;0.60;;;30.40;43.50;;;;;;4974482;28;20486;-77
2022/07/31 10:04:21;;;;;;;0.70;0.60;;;30.40;44.00;;;;;;4974623;28;20451;-78
2022/07/31 10:06:49;;;;;;;0.90;0.70;;;30.60;43.50;;;;;;4974710;28;20450;-78
2022/07/31 10:09:19;;;;;;;0.70;0.60;;;30.70;43.70;;;;;;4974533;28;20458;-77
2022/07/31 10:11:47;;;;;;;0.70;0.60;;;30.60;42.40;;;;;;4974480;28;20466;-77
2022/07/31 10:14:22;;;;;;;0.80;0.60;;;30.40;44.30;;;;;;4974565;28;20490;-77
2022/07/31 10:16:51;;;;;;;0.90;0.60;;;30.60;45.20;;;;;;4974589;28;20461;-77
2022/07/31 10:19:19;;;;;;;0.80;0.60;;;30.20;43.80;;;;;;4974304;28;20959;-77
2022/07/31 10:21:52;;;;;;;0.70;0.50;;;30.20;45.90;;;;;;4974476;28;20474;-77
2022/07/31 10:24:19;;;;;;;0.70;0.60;;;30.30;43.70;;;;;;4974628;28;20617;-77
2022/07/31 10:26:47;;;;;;;0.70;0.50;;;30.60;45.80;;;;;;4974352;28;20461;-77
2022/07/31 10:29:17;;;;;;;0.70;0.60;;;30.90;43.80;;;;;;4974377;28;20450;-77
2022/07/31 10:31:45;;;;;;;0.80;0.70;;;31.00;44.30;;;;;;4974402;28;20593;-76
2022/07/31 10:34:13;;;;;;;0.70;0.53;;;30.80;43.80;;;;;;4977882;28;20528;-77
2022/07/31 10:36:41;;;;;;;0.60;0.60;;;31.00;44.70;;;;;;4978038;28;20449;-77
2022/07/31 10:39:14;;;;;;;0.70;0.50;;;31.00;43.30;;;;;;4977855;28;20497;-77
2022/07/31 10:41:46;;;;;;;0.70;0.60;;;30.80;44.50;;;;;;4977862;28;20477;-77
2022/07/31 10:44:21;;;;;;;0.70;0.60;;;30.50;43.40;;;;;;4978758;28;20434;-77
2022/07/31 10:46:48;;;;;;;0.70;0.60;;;30.50;43.90;;;;;;4977928;28;20441;-77
2022/07/31 10:49:14;;;;;;;0.70;0.53;;;30.30;43.50;;;;;;4978235;28;20450;-77
2022/07/31 10:51:47;;;;;;;0.70;0.60;;;30.30;45.30;;;;;;4977265;28;20466;-76
2022/07/31 10:54:14;;;;;;;0.70;0.60;;;30.30;44.60;;;;;;4977550;28;20561;-77
2022/07/31 10:56:42;;;;;;;0.70;0.57;;;30.40;44.40;;;;;;4977537;28;20549;-76
2022/07/31 10:59:09;;;;;;;1.07;0.60;;;30.00;44.60;;;;;;4977541;28;20497;-77
2022/07/31 11:01:47;;;;;;;0.70;0.50;;;29.80;45.80;;;;;;4977374;28;20478;-76
2022/07/31 11:04:13;;;;;;;0.70;0.60;;;29.90;45.60;;;;;;4977191;28;20902;-77
2022/07/31 11:06:43;;;;;;;0.70;0.60;;;29.90;44.80;;;;;;4977116;28;20858;-77
2022/07/31 11:09:10;;;;;;;0.70;0.60;;;29.60;44.10;;;;;;4977088;28;20934;-76
2022/07/31 11:11:37;;;;;;;0.70;0.60;;;29.60;44.50;;;;;;4976946;28;20989;-77
2022/07/31 11:14:04;;;;;;;0.70;0.60;;;29.70;44.90;;;;;;4977205;28;20532;-76
2022/07/31 11:16:31;;;;;;;0.70;0.60;;;29.70;46.60;;;;;;4976936;28;21028;-76
2022/07/31 11:19:00;;;;;;;0.70;0.60;;;29.70;46.20;;;;;;4977183;28;20497;-76
2022/07/31 11:21:32;;;;;;;0.70;0.60;;;29.70;45.30;;;;;;4977159;28;20529;-76
2022/07/31 11:23:59;;;;;;;0.70;0.57;;;29.80;45.20;;;;;;4976809;28;20957;-76
2022/07/31 11:26:26;;;;;;;0.70;0.60;;;29.80;45.30;;;;;;4976709;28;20946;-76
2022/07/31 11:28:53;;;;;;;0.87;0.63;;;30.00;44.50;;;;;;4976729;28;20870;-76
2022/07/31 11:31:19;;;;;;;0.70;0.53;;;30.00;44.30;;;;;;4976896;28;20477;-76
2022/07/31 11:33:48;;;;;;;0.70;0.50;;;30.20;44.10;;;;;;4976852;28;20477;-76
2022/07/31 11:36:18;;;;;;;0.70;0.50;;;30.40;43.80;;;;;;4976937;28;20458;-76
2022/07/31 11:38:49;;;;;;;0.70;0.60;;;30.60;43.70;;;;;;4976930;28;20470;-76
2022/07/31 11:41:16;;;;;;;1.00;0.60;;;30.50;46.70;;;;;;4976761;28;20574;-77
2022/07/31 11:43:44;;;;;;;0.70;0.60;;;30.40;46.10;;;;;;4976431;28;20457;-77
2022/07/31 11:46:11;;;;;;;0.70;0.60;;;30.30;46.40;;;;;;4976707;28;20450;-77
2022/07/31 11:48:39;;;;;;;0.70;0.60;;;30.50;46.50;;;;;;4976704;28;20513;-77
2022/07/31 11:51:06;;;;;;;1.00;0.60;;;30.60;45.40;;;;;;4976259;28;20985;-76
2022/07/31 11:53:40;;;;;;;0.70;0.60;;;30.70;44.60;;;;;;4976508;28;20482;-77
2022/07/31 11:56:07;;;;;;;0.70;0.50;;;30.50;45.40;;;;;;4976249;28;20478;-77
2022/07/31 11:58:33;;;;;;;1.37;0.60;;;30.50;46.00;;;;;;4976505;28;20446;-77
2022/07/31 12:01:02;;;;;;;1.20;0.67;;;30.40;45.50;;;;;;4976292;28;20537;-77
2022/07/31 12:03:30;;;;;;;0.70;0.60;;;29.90;46.80;;;;;;4976004;28;20462;-77
2022/07/31 12:05:57;;;;;;;0.80;0.70;;;29.50;46.30;;;;;;4976382;28;20450;-77
2022/07/31 12:08:25;;;;;;;0.70;0.60;;;29.30;46.80;;;;;;4976028;28;20942;-77
2022/07/31 12:10:54;;;;;;;0.70;0.60;;;29.30;47.40;;;;;;4975830;28;20473;-77
2022/07/31 12:13:22;;;;;;;0.70;0.60;;;29.40;46.90;;;;;;4976167;28;20450;-76
2022/07/31 12:15:57;;;;;;;0.70;0.60;;;29.20;46.90;;;;;;4976164;28;20466;-77
2022/07/31 12:18:25;;;;;;;0.80;0.60;;;29.10;45.90;;;;;;4976114;28;20450;-77
2022/07/31 12:20:53;;;;;;;0.70;0.60;;;29.40;47.20;;;;;;4976034;28;20474;-77
2022/07/31 12:23:19;;;;;;;1.13;0.50;;;29.40;45.70;;;;;;4976010;28;20537;-77
2022/07/31 12:25:46;;;;;;;0.73;0.70;;;29.70;46.80;;;;;;4975993;28;20450;-77
2022/07/31 12:28:15;;;;;;;0.70;0.57;;;29.90;45.20;;;;;;4975629;28;20455;-77
2022/07/31 12:30:42;;;;;;;0.70;0.50;;;30.20;44.40;;;;;;4975825;28;20465;-77
2022/07/31 12:33:10;;;;;;;0.70;0.60;;;30.40;45.10;;;;;;4975870;28;20473;-77
2022/07/31 12:35:38;;;;;;;0.70;0.60;;;30.60;44.80;;;;;;4975834;28;20806;-77
2022/07/31 12:38:06;;;;;;;0.70;0.50;;;30.80;45.10;;;;;;4975411;28;20937;-77
2022/07/31 12:40:34;;;;;;;0.70;0.60;;;31.00;44.90;;;;;;4975651;28;20501;-76
2022/07/31 12:43:01;;;;;;;0.70;0.60;;;31.20;44.60;;;;;;4975302;28;20442;-77
2022/07/31 12:45:35;;;;;;;0.70;0.60;;;31.50;42.50;;;;;;4975344;28;20942;-77
2022/07/31 12:48:02;;;;;;;0.70;0.50;;;31.10;42.80;;;;;;4975273;28;20802;-76
2022/07/31 12:50:31;;;;;;;0.80;0.60;;;31.00;43.00;;;;;;4975451;28;20824;-77
2022/07/31 12:53:00;;;;;;;0.67;0.50;;;31.20;43.40;;;;;;4975178;28;20945;-76
2022/07/31 12:55:27;;;;;;;0.60;0.50;;;31.30;43.60;;;;;;4974665;28;20572;-78
2022/07/31 12:57:55;;;;;;;0.77;0.60;;;31.30;42.00;;;;;;4975456;28;20454;-78
2022/07/31 13:00:23;;;;;;;1.37;0.77;;;31.10;42.60;;;;;;4975382;28;20454;-78
2022/07/31 13:02:52;;;;;;;0.80;0.60;;;31.20;42.70;;;;;;4974986;28;20510;-78
2022/07/31 13:05:18;;;;;;;0.60;0.50;;;31.20;42.70;;;;;;4975307;28;20501;-78
2022/07/31 13:07:45;;;;;;;0.60;0.57;;;31.30;43.10;;;;;;4975300;28;20517;-78
2022/07/31 13:10:12;;;;;;;0.70;0.57;;;31.50;43.00;;;;;;4975185;28;20450;-78
2022/07/31 13:12:38;;;;;;;0.60;0.60;;;31.80;42.00;;;;;;4975086;28;20818;-78
2022/07/31 13:15:06;;;;;;;0.70;0.60;;;31.70;41.00;;;;;;4975031;28;20509;-78
2022/07/31 13:17:33;;;;;;;0.70;0.60;;;31.60;40.20;;;;;;4976624;28;20981;-79
2022/07/31 13:20:01;;;;;;;0.97;0.60;;;31.50;42.20;;;;;;4978999;28;20549;-78
2022/07/31 13:22:27;;;;;;;0.87;0.60;;;31.40;43.00;;;;;;4977038;28;20466;-79
2022/07/31 13:24:54;;;;;;;0.70;0.60;;;31.40;41.50;;;;;;4977103;28;20446;-79
2022/07/31 13:27:21;;;;;;;0.70;0.57;;;31.50;41.80;;;;;;4976350;28;20877;-80
2022/07/31 13:29:48;;;;;;;0.70;0.60;;;31.50;42.40;;;;;;4974894;28;20446;-76
2022/07/31 13:32:15;;;;;;;0.73;0.73;;;31.70;42.90;;;;;;4974447;28;20470;-74
2022/07/31 13:34:42;;;;;;;1.00;1.00;;;31.80;41.60;;;;;;4974722;28;20486;-74
2022/07/31 13:37:10;;;;;;;0.97;0.93;;;31.90;41.50;;;;;;4974812;28;20450;-77
2022/07/31 13:39:36;;;;;;;0.70;0.60;;;32.00;42.70;;;;;;4974563;28;20482;-78
2022/07/31 13:42:04;;;;;;;0.70;0.70;;;31.90;41.40;;;;;;4974395;28;20474;-76
2022/07/31 13:44:32;;;;;;;1.80;1.70;;;32.20;43.00;;;;;;4974829;28;20447;-75
2022/07/31 13:46:58;;;;;;;0.90;0.90;;;32.40;42.40;;;;;;4974657;28;20545;-75
2022/07/31 13:49:30;;;;;;;1.50;1.40;;;32.30;40.70;;;;;;4974317;28;20946;-75
2022/07/31 13:51:57;;;;;;;0.70;0.60;;;32.60;41.00;;;;;;4974637;28;20482;-75
2022/07/31 13:54:26;;;;;;;0.83;0.80;;;32.50;40.10;;;;;;4974577;28;20532;-76
2022/07/31 13:56:52;;;;;;;1.10;1.00;;;32.30;41.90;;;;;;4974375;28;20481;-75
2022/07/31 13:59:19;;;;;;;2.60;0.80;;;32.40;41.60;;;;;;4974655;28;20812;-75
2022/07/31 14:01:49;;;;;;;0.70;0.60;;;32.60;39.60;;;;;;4974415;28;20482;-75
2022/07/31 14:04:16;;;;;;;0.70;0.60;;;32.80;38.60;;;;;;4974610;28;20441;-77
2022/07/31 14:06:43;;;;;;;0.70;0.60;;;32.90;38.60;;;;;;4975924;28;20455;-79
2022/07/31 14:09:09;;;;;;;0.60;0.60;;;33.20;40.50;;;;;;4981882;28;20887;-76
2022/07/31 14:11:37;;;;;;;0.60;0.50;;;33.30;37.20;;;;;;4980690;28;21044;-77
2022/07/31 14:14:04;;;;;;;0.70;0.50;;;33.20;38.20;;;;;;4978560;28;20478;-78
2022/07/31 14:16:31;;;;;;;0.60;0.53;;;33.20;38.70;;;;;;4979877;28;20520;-79
2022/07/31 14:18:57;;;;;;;0.70;0.50;;;33.50;38.50;;;;;;4979457;28;20453;-78
2022/07/31 14:21:24;;;;;;;0.60;0.60;;;33.70;36.90;;;;;;4980938;28;20477;-79
2022/07/31 14:23:51;;;;;;;0.60;0.50;;;33.70;37.20;;;;;;4980457;28;20450;-80
2022/07/31 14:26:17;;;;;;;0.70;0.60;;;33.70;37.30;;;;;;4980142;28;20461;-80
2022/07/31 14:28:45;;;;;;;0.70;0.60;;;33.80;36.80;;;;;;4982389;28;20457;-79
2022/07/31 14:31:14;;;;;;;0.90;0.60;;;34.00;38.10;;;;;;4979950;28;20473;-77
2022/07/31 14:33:41;;;;;;;0.70;0.60;;;33.90;36.70;;;;;;4979807;28;20524;-77
2022/07/31 14:36:07;;;;;;;0.60;0.50;;;33.70;37.50;;;;;;4978210;28;20544;-79
2022/07/31 14:38:34;;;;;;;0.60;0.50;;;33.70;37.70;;;;;;4979678;28;20877;-78
2022/07/31 14:41:02;;;;;;;0.70;0.60;;;33.80;37.00;;;;;;4978708;28;20844;-80
2022/07/31 14:43:29;;;;;;;1.00;0.60;;;33.50;37.20;;;;;;4981725;28;20557;-80
2022/07/31 14:45:57;;;;;;;0.60;0.50;;;33.30;37.20;;;;;;4986115;28;20446;-77
2022/07/31 14:48:24;;;;;;;0.60;0.50;;;33.30;37.40;;;;;;4978006;28;20450;-78
2022/07/31 14:50:50;;;;;;;0.60;0.50;;;33.10;37.80;;;;;;4984243;28;20470;-79
2022/07/31 14:53:17;;;;;;;0.60;0.50;;;33.10;38.80;;;;;;4984892;28;20865;-79
2022/07/31 14:55:43;;;;;;;0.63;0.50;;;33.40;37.70;;;;;;4980815;28;20997;-79
2022/07/31 14:58:10;;;;;;;0.77;0.60;;;33.70;37.10;;;;;;4983063;28;20522;-78
2022/07/31 15:00:37;;;;;;;0.60;0.50;;;33.90;36.80;;;;;;4979578;28;20469;-77
2022/07/31 15:03:05;;;;;;;0.60;0.50;;;33.90;36.50;;;;;;4984927;28;20465;-78
2022/07/31 15:05:32;;;;;;;0.70;0.50;;;33.90;36.30;;;;;;4984217;28;20864;-78
2022/07/31 15:07:59;;;;;;;0.70;0.60;;;33.70;37.10;;;;;;4980073;28;20500;-77
2022/07/31 15:10:26;;;;;;;0.60;0.60;;;33.60;37.40;;;;;;4984555;28;20569;-76
2022/07/31 15:12:52;;;;;;;0.70;0.50;;;33.40;37.20;;;;;;4984971;28;20454;-77
2022/07/31 15:15:19;;;;;;;0.70;0.60;;;33.40;37.60;;;;;;4982455;28;20494;-76
2022/07/31 15:17:46;;;;;;;1.00;0.57;;;33.30;37.30;;;;;;4976689;28;20454;-76
2022/07/31 15:20:14;;;;;;;0.70;0.60;;;33.30;37.30;;;;;;4976836;28;20856;-76
2022/07/31 15:22:41;;;;;;;0.60;0.50;;;33.00;37.40;;;;;;4977127;28;20476;-76
2022/07/31 15:25:09;;;;;;;0.70;0.60;;;33.10;37.80;;;;;;4977110;28;20493;-76
2022/07/31 15:27:35;;;;;;;0.63;0.57;;;33.10;37.90;;;;;;4977095;28;20509;-76
2022/07/31 15:30:02;;;;;;;0.70;0.50;;;32.90;39.00;;;;;;4976999;28;20454;-76
2022/07/31 15:32:29;;;;;;;0.60;0.50;;;32.70;38.80;;;;;;4976884;28;21044;-76
2022/07/31 15:34:56;;;;;;;0.70;0.60;;;32.80;39.30;;;;;;4976515;28;20877;-76
2022/07/31 15:37:24;;;;;;;0.67;0.50;;;33.20;38.30;;;;;;4976854;28;20521;-76
2022/07/31 15:39:50;;;;;;;0.63;0.53;;;33.30;37.70;;;;;;4976655;28;20854;-76
2022/07/31 15:42:17;;;;;;;0.70;0.60;;;33.50;38.40;;;;;;4976725;28;21048;-76
2022/07/31 15:44:43;;;;;;;0.70;0.60;;;33.70;37.50;;;;;;4976777;28;20446;-77
2022/07/31 15:47:11;;;;;;;1.03;0.60;;;33.60;37.90;;;;;;4976774;28;20450;-78
2022/07/31 15:49:38;;;;;;;0.70;0.50;;;33.50;37.90;;;;;;4976569;28;20509;-78